Time;durP1;ratioP1;P1;durP2;ratioP2;P2;SDS_P1;SDS_P2;PMS_P1;PMS_P2;Temp;Humidity;BMP_temperature;BMP_pressure;BME280_temperature;BME280_humidity;BME280_pressure;Samples;Min_cycle;Max_cycle;Signal;HPM_P1;HPM_P2
2024/01/21 14:35:56;;;;;;;27.05;17.25;;;;;;;;;;6738648;19;50707;-82
2024/01/21 14:38:21;;;;;;;27.08;16.80;;;;;;;;;;7328534;19;20071;-82
2024/01/21 14:40:47;;;;;;;26.33;17.10;;;;;;;;;;7357931;19;19994;-79
2024/01/21 14:43:12;;;;;;;26.05;16.75;;;;;;;;;;7351898;19;20286;-80
2024/01/21 14:45:37;;;;;;;25.50;17.63;;;;;;;;;;7329477;19;20002;-83
2024/01/21 14:48:02;;;;;;;30.45;17.65;;;;;;;;;;7343344;19;20280;-82
2024/01/21 14:50:27;;;;;;;29.13;17.35;;;;;;;;;;7347341;19;19998;-83
2024/01/21 14:52:53;;;;;;;29.83;17.48;;;;;;;;;;7340830;19;20098;-82
2024/01/21 14:55:18;;;;;;;30.10;17.63;;;;;;;;;;7360726;19;20007;-77
2024/01/21 14:57:44;;;;;;;27.00;16.73;;;;;;;;;;7364319;19;20752;-83
2024/01/21 15:00:10;;;;;;;29.52;17.33;;;;;;;;;;7359030;19;20005;-78
2024/01/21 15:02:35;;;;;;;26.58;16.60;;;;;;;;;;7336013;19;20085;-85
2024/01/21 15:05:01;;;;;;;26.90;17.35;;;;;;;;;;7350901;19;20068;-84
2024/01/21 15:07:26;;;;;;;26.80;16.67;;;;;;;;;;7330668;19;20090;-84
2024/01/21 15:09:51;;;;;;;30.27;17.57;;;;;;;;;;7341339;19;20450;-81
2024/01/21 15:12:16;;;;;;;26.52;16.40;;;;;;;;;;7358481;19;20302;-83
2024/01/21 15:14:51;;;;;;;24.93;15.03;;;;;;;;;;7363656;19;20062;-82
2024/01/21 15:17:17;;;;;;;33.50;17.10;;;;;;;;;;7333500;19;20227;-84
2024/01/21 15:19:43;;;;;;;27.30;16.02;;;;;;;;;;7362742;19;20023;-83
2024/01/21 15:22:09;;;;;;;26.52;15.88;;;;;;;;;;7352271;19;19999;-82
2024/01/21 15:24:34;;;;;;;27.17;16.38;;;;;;;;;;7345090;19;20723;-86
2024/01/21 15:26:59;;;;;;;29.50;17.27;;;;;;;;;;7359114;19;20483;-81
2024/01/21 15:29:24;;;;;;;24.35;16.20;;;;;;;;;;7349174;19;20212;-82
2024/01/21 15:31:49;;;;;;;27.30;17.13;;;;;;;;;;7346274;19;20228;-85
2024/01/21 15:34:15;;;;;;;25.03;15.87;;;;;;;;;;7352810;19;20893;-83
2024/01/21 15:36:40;;;;;;;29.52;16.15;;;;;;;;;;7337174;19;20248;-81
2024/01/21 15:39:06;;;;;;;29.98;16.27;;;;;;;;;;7337848;19;20006;-84
2024/01/21 15:41:33;;;;;;;29.23;16.42;;;;;;;;;;7336446;19;20813;-85
2024/01/21 15:43:58;;;;;;;28.27;16.58;;;;;;;;;;7322502;19;20098;-87
2024/01/21 15:46:23;;;;;;;29.98;18.17;;;;;;;;;;7349131;19;20097;-86
2024/01/21 15:48:48;;;;;;;27.55;17.10;;;;;;;;;;7336364;19;20762;-78
2024/01/21 15:51:14;;;;;;;27.55;16.25;;;;;;;;;;7345021;19;19999;-84
2024/01/21 15:53:39;;;;;;;24.80;15.20;;;;;;;;;;7342904;19;20244;-81
2024/01/21 15:56:05;;;;;;;24.55;16.45;;;;;;;;;;7331426;19;20026;-79
2024/01/21 15:58:30;;;;;;;28.85;16.58;;;;;;;;;;7356379;19;20010;-81
2024/01/21 16:00:55;;;;;;;27.10;16.13;;;;;;;;;;7359053;19;20022;-82
2024/01/21 16:03:22;;;;;;;30.70;17.08;;;;;;;;;;7359131;19;20452;-77
2024/01/21 16:05:47;;;;;;;25.67;15.73;;;;;;;;;;7365614;19;20023;-81
2024/01/21 16:08:12;;;;;;;29.17;15.63;;;;;;;;;;7353454;19;20003;-78
2024/01/21 16:10:37;;;;;;;31.65;15.20;;;;;;;;;;7353802;19;20019;-81
2024/01/21 16:13:03;;;;;;;27.75;16.17;;;;;;;;;;7351824;19;20099;-82
2024/01/21 16:15:28;;;;;;;25.95;15.38;;;;;;;;;;7361325;19;20011;-81
2024/01/21 16:17:54;;;;;;;27.45;15.25;;;;;;;;;;7348510;19;20019;-82
2024/01/21 16:20:19;;;;;;;28.13;15.77;;;;;;;;;;7356182;19;20510;-85
2024/01/21 16:22:45;;;;;;;30.52;16.05;;;;;;;;;;7287015;19;20241;-82
2024/01/21 16:25:10;;;;;;;30.10;15.82;;;;;;;;;;7307768;19;20073;-87
2024/01/21 16:27:35;;;;;;;25.73;16.00;;;;;;;;;;7316424;19;20026;-87
2024/01/21 16:30:00;;;;;;;27.45;15.75;;;;;;;;;;7335566;19;20118;-83
2024/01/21 16:32:26;;;;;;;27.10;15.93;;;;;;;;;;7348083;19;20459;-77
2024/01/21 16:34:51;;;;;;;26.02;15.50;;;;;;;;;;7352427;19;20402;-80
2024/01/21 16:37:16;;;;;;;23.55;15.60;;;;;;;;;;7341840;19;20339;-83
2024/01/21 16:39:41;;;;;;;31.75;16.35;;;;;;;;;;7299594;19;20023;-86
2024/01/21 16:42:06;;;;;;;26.73;16.00;;;;;;;;;;7334398;19;20010;-83
2024/01/21 16:44:32;;;;;;;29.13;16.50;;;;;;;;;;7344976;19;20297;-80
2024/01/21 16:46:59;;;;;;;26.83;15.82;;;;;;;;;;7352113;19;20251;-79
2024/01/21 16:49:26;;;;;;;30.00;16.23;;;;;;;;;;7336732;19;20362;-88
2024/01/21 16:52:11;;;;;;;30.08;16.95;;;;;;;;;;7331150;19;20864;-82
2024/01/21 16:54:36;;;;;;;30.02;16.38;;;;;;;;;;7358749;19;20077;-81
2024/01/21 16:57:01;;;;;;;30.08;16.38;;;;;;;;;;7364864;19;20082;-80
2024/01/21 16:59:28;;;;;;;27.55;16.67;;;;;;;;;;7365413;19;21095;-80
2024/01/21 17:01:58;;;;;;;27.38;14.90;;;;;;;;;;7352782;19;20455;-81
2024/01/21 17:04:24;;;;;;;26.83;15.07;;;;;;;;;;7363366;19;19995;-79
2024/01/21 17:06:49;;;;;;;28.67;17.08;;;;;;;;;;7360616;19;20103;-84
2024/01/21 17:09:14;;;;;;;27.15;16.20;;;;;;;;;;7354210;19;19991;-84
2024/01/21 17:11:50;;;;;;;31.73;16.35;;;;;;;;;;7365144;19;19995;-81
2024/01/21 17:14:19;;;;;;;31.08;16.63;;;;;;;;;;7362227;19;20103;-84
2024/01/21 17:16:45;;;;;;;29.77;16.67;;;;;;;;;;7353657;19;20022;-86
2024/01/21 17:19:13;;;;;;;24.55;15.23;;;;;;;;;;7353448;19;20509;-82
2024/01/21 17:21:38;;;;;;;31.02;16.65;;;;;;;;;;7356456;19;20010;-82
2024/01/21 17:24:03;;;;;;;29.48;16.25;;;;;;;;;;7347673;19;20015;-82
2024/01/21 17:26:28;;;;;;;30.23;16.92;;;;;;;;;;7362621;19;20412;-82
2024/01/21 17:28:54;;;;;;;31.02;16.30;;;;;;;;;;7347693;19;20032;-80
2024/01/21 17:31:19;;;;;;;29.57;16.17;;;;;;;;;;7357712;19;20002;-86
2024/01/21 17:33:44;;;;;;;28.92;16.67;;;;;;;;;;7338928;19;20811;-84
2024/01/21 17:36:11;;;;;;;29.77;16.98;;;;;;;;;;7334225;19;20007;-83
2024/01/21 17:38:37;;;;;;;26.20;16.30;;;;;;;;;;7345444;19;20517;-82
2024/01/21 17:41:02;;;;;;;29.27;17.05;;;;;;;;;;7353579;19;20344;-87
2024/01/21 17:43:27;;;;;;;29.20;16.92;;;;;;;;;;7354084;19;20010;-82
2024/01/21 17:45:52;;;;;;;29.77;17.13;;;;;;;;;;7352038;19;20220;-85
2024/01/21 17:48:17;;;;;;;29.67;16.33;;;;;;;;;;7345748;19;20568;-84
2024/01/21 17:50:43;;;;;;;29.45;17.38;;;;;;;;;;7360005;19;20230;-82
2024/01/21 17:53:08;;;;;;;29.10;17.45;;;;;;;;;;7350619;19;20105;-86
2024/01/21 17:55:33;;;;;;;34.93;18.50;;;;;;;;;;7324128;19;20356;-81
2024/01/21 17:57:59;;;;;;;37.10;19.33;;;;;;;;;;7365225;19;20234;-85
2024/01/21 18:00:24;;;;;;;34.30;19.15;;;;;;;;;;7360468;19;20428;-84
2024/01/21 18:02:49;;;;;;;32.78;19.85;;;;;;;;;;7336428;19;20014;-79
2024/01/21 18:05:15;;;;;;;30.15;18.00;;;;;;;;;;7361472;19;20014;-89
2024/01/21 18:07:40;;;;;;;36.20;20.00;;;;;;;;;;7354993;19;20225;-89
2024/01/21 18:10:05;;;;;;;31.02;18.75;;;;;;;;;;7307920;19;20002;-86
2024/01/21 18:12:31;;;;;;;32.65;20.35;;;;;;;;;;7334197;19;20002;-83
2024/01/21 18:14:56;;;;;;;32.97;20.80;;;;;;;;;;7334915;19;19999;-87
2024/01/21 18:17:21;;;;;;;33.75;21.02;;;;;;;;;;7354348;19;20749;-82
2024/01/21 18:19:46;;;;;;;34.88;20.45;;;;;;;;;;7323753;19;20002;-85
2024/01/21 18:22:12;;;;;;;35.22;22.08;;;;;;;;;;7363962;19;19999;-80
2024/01/21 18:24:41;;;;;;;34.55;22.02;;;;;;;;;;7355728;19;20106;-78
2024/01/21 18:27:06;;;;;;;38.50;22.60;;;;;;;;;;7366090;19;20016;-80
2024/01/21 18:29:31;;;;;;;37.97;22.17;;;;;;;;;;7339409;19;20433;-83
2024/01/21 18:31:59;;;;;;;37.80;22.48;;;;;;;;;;7342269;19;19991;-82
2024/01/21 18:34:27;;;;;;;42.10;24.63;;;;;;;;;;7351458;19;20331;-79
2024/01/21 18:36:52;;;;;;;38.45;23.73;;;;;;;;;;7363648;19;20014;-81
2024/01/21 18:39:17;;;;;;;42.70;23.85;;;;;;;;;;7350589;19;19998;-84
2024/01/21 18:41:42;;;;;;;43.05;24.30;;;;;;;;;;7365818;19;20133;-82
2024/01/21 18:44:08;;;;;;;48.25;27.08;;;;;;;;;;7354041;19;20256;-83
2024/01/21 18:46:33;;;;;;;44.08;26.33;;;;;;;;;;7334792;19;20006;-87
2024/01/21 18:48:58;;;;;;;49.95;27.45;;;;;;;;;;7350604;19;20020;-83
2024/01/21 18:51:23;;;;;;;51.92;28.05;;;;;;;;;;7350752;19;20016;-84
2024/01/21 18:53:48;;;;;;;54.72;28.25;;;;;;;;;;7356813;19;20263;-81
2024/01/21 18:56:21;;;;;;;45.65;26.90;;;;;;;;;;7359547;19;20310;-83
2024/01/21 18:58:46;;;;;;;51.67;26.52;;;;;;;;;;7363459;19;20235;-79
2024/01/21 19:01:13;;;;;;;67.50;29.38;;;;;;;;;;7355780;19;19990;-87
2024/01/21 19:03:39;;;;;;;59.13;26.55;;;;;;;;;;7358851;19;20556;-86
2024/01/21 19:06:05;;;;;;;95.68;33.20;;;;;;;;;;7356403;19;19998;-77
2024/01/21 19:08:30;;;;;;;45.00;27.60;;;;;;;;;;7351947;19;20455;-79
2024/01/21 19:10:55;;;;;;;66.45;29.50;;;;;;;;;;7353876;19;19998;-78
2024/01/21 19:13:20;;;;;;;71.72;30.13;;;;;;;;;;7357058;19;20242;-81
2024/01/21 19:15:45;;;;;;;62.53;28.27;;;;;;;;;;7346475;19;20003;-83
2024/01/21 19:18:11;;;;;;;48.88;26.15;;;;;;;;;;7349988;19;21026;-80
2024/01/21 19:20:36;;;;;;;58.92;28.38;;;;;;;;;;7356888;19;20017;-82
2024/01/21 19:23:01;;;;;;;51.60;27.08;;;;;;;;;;7345424;19;20002;-80
2024/01/21 19:25:27;;;;;;;60.35;29.90;;;;;;;;;;7332740;19;20002;-78
2024/01/21 19:27:52;;;;;;;52.92;27.88;;;;;;;;;;7352668;19;19999;-86
2024/01/21 19:30:17;;;;;;;50.30;29.25;;;;;;;;;;7362291;19;20005;-81
2024/01/21 19:32:42;;;;;;;81.65;31.83;;;;;;;;;;7361635;19;19994;-83
2024/01/21 19:35:07;;;;;;;85.80;31.17;;;;;;;;;;7357600;19;20087;-79
2024/01/21 19:37:33;;;;;;;90.75;33.72;;;;;;;;;;7353508;19;20018;-81
2024/01/21 19:39:58;;;;;;;112.93;31.77;;;;;;;;;;7348844;19;20011;-78
2024/01/21 19:42:23;;;;;;;198.07;41.85;;;;;;;;;;7353904;19;20014;-78
2024/01/21 19:44:48;;;;;;;213.38;43.38;;;;;;;;;;7361319;19;20030;-87
2024/01/21 19:47:14;;;;;;;231.05;41.30;;;;;;;;;;7361369;19;20018;-82
2024/01/21 19:49:39;;;;;;;356.40;51.78;;;;;;;;;;7355381;19;19999;-79
2024/01/21 19:52:05;;;;;;;92.85;30.70;;;;;;;;;;7358994;19;20006;-79
2024/01/21 19:54:34;;;;;;;328.58;48.58;;;;;;;;;;7332094;19;20151;-84
2024/01/21 19:57:00;;;;;;;133.48;34.67;;;;;;;;;;7361114;19;20018;-79
2024/01/21 19:59:25;;;;;;;78.68;30.48;;;;;;;;;;7357945;19;20467;-83
2024/01/21 20:01:50;;;;;;;58.92;28.13;;;;;;;;;;7356258;19;20031;-78
2024/01/21 20:04:15;;;;;;;57.72;26.92;;;;;;;;;;7354919;19;19999;-82
2024/01/21 20:06:41;;;;;;;48.03;25.90;;;;;;;;;;7358580;19;21063;-79
2024/01/21 20:09:08;;;;;;;49.65;27.13;;;;;;;;;;7345973;19;20010;-80
2024/01/21 20:11:34;;;;;;;50.88;25.63;;;;;;;;;;7358183;19;20010;-80
2024/01/21 20:14:00;;;;;;;52.70;26.90;;;;;;;;;;7352685;19;20008;-83
2024/01/21 20:16:25;;;;;;;53.30;28.25;;;;;;;;;;7359109;19;20698;-83
2024/01/21 20:18:51;;;;;;;50.65;28.13;;;;;;;;;;7302535;19;20034;-82
2024/01/21 20:21:16;;;;;;;54.58;28.45;;;;;;;;;;7324581;19;20003;-79
2024/01/21 20:23:41;;;;;;;47.33;26.60;;;;;;;;;;7333127;19;20475;-81
2024/01/21 20:26:07;;;;;;;57.25;29.45;;;;;;;;;;7356717;19;20009;-78
2024/01/21 20:28:33;;;;;;;54.65;29.00;;;;;;;;;;7358637;19;20002;-82
2024/01/21 20:30:58;;;;;;;66.95;30.55;;;;;;;;;;7372742;19;20235;-81
2024/01/21 20:33:23;;;;;;;88.18;33.10;;;;;;;;;;7363882;19;20363;-85
2024/01/21 20:35:49;;;;;;;56.92;29.77;;;;;;;;;;7365169;19;20003;-78
2024/01/21 20:38:14;;;;;;;54.67;29.85;;;;;;;;;;7357765;19;20230;-81
2024/01/21 20:40:41;;;;;;;147.63;40.78;;;;;;;;;;7369813;19;20014;-79
2024/01/21 20:43:06;;;;;;;81.57;32.35;;;;;;;;;;7372798;19;20415;-82
2024/01/21 20:45:31;;;;;;;60.42;29.20;;;;;;;;;;7362823;19;20086;-82
2024/01/21 20:47:56;;;;;;;71.35;31.85;;;;;;;;;;7354151;19;20571;-83
2024/01/21 20:50:21;;;;;;;52.58;26.98;;;;;;;;;;7350253;19;20251;-77
2024/01/21 20:52:53;;;;;;;48.60;27.03;;;;;;;;;;7361026;19;20005;-81
2024/01/21 20:55:19;;;;;;;38.03;25.27;;;;;;;;;;7367920;19;20264;-80
2024/01/21 20:57:44;;;;;;;46.70;26.10;;;;;;;;;;7365075;19;20025;-78
2024/01/21 21:00:09;;;;;;;42.58;25.45;;;;;;;;;;7372033;19;20259;-80
2024/01/21 21:02:34;;;;;;;44.65;25.70;;;;;;;;;;7363941;19;20231;-80
2024/01/21 21:04:59;;;;;;;47.47;24.90;;;;;;;;;;7366608;19;20006;-80
2024/01/21 21:07:25;;;;;;;39.47;24.42;;;;;;;;;;7370403;19;20430;-79
2024/01/21 21:09:50;;;;;;;43.95;24.08;;;;;;;;;;7355989;19;20874;-79
2024/01/21 21:12:16;;;;;;;45.45;26.17;;;;;;;;;;7361108;19;20291;-79
2024/01/21 21:14:44;;;;;;;42.28;25.27;;;;;;;;;;7369950;19;20010;-79
2024/01/21 21:17:09;;;;;;;44.17;25.42;;;;;;;;;;7358125;19;20503;-82
2024/01/21 21:19:35;;;;;;;50.05;26.23;;;;;;;;;;7355198;19;20009;-81
2024/01/21 21:22:00;;;;;;;44.67;24.77;;;;;;;;;;7355590;19;19999;-80
2024/01/21 21:24:25;;;;;;;52.80;27.58;;;;;;;;;;7361215;19;20327;-79
2024/01/21 21:26:50;;;;;;;47.75;26.90;;;;;;;;;;7364790;19;19999;-80
2024/01/21 21:29:15;;;;;;;48.78;26.65;;;;;;;;;;7360603;19;20240;-77
2024/01/21 21:31:40;;;;;;;47.85;27.15;;;;;;;;;;7363060;19;20269;-83
2024/01/21 21:34:06;;;;;;;47.60;26.95;;;;;;;;;;7362648;19;20003;-79
2024/01/21 21:36:31;;;;;;;51.13;27.17;;;;;;;;;;7360139;19;20002;-79
2024/01/21 21:38:56;;;;;;;59.08;29.05;;;;;;;;;;7354393;19;20029;-84
2024/01/21 21:41:22;;;;;;;54.00;28.88;;;;;;;;;;7368384;19;20651;-81
2024/01/21 21:43:47;;;;;;;55.25;28.52;;;;;;;;;;7365575;19;20711;-82
2024/01/21 21:46:12;;;;;;;54.83;29.55;;;;;;;;;;7368512;19;20005;-82
2024/01/21 21:48:38;;;;;;;61.83;30.17;;;;;;;;;;7362107;19;20457;-78
2024/01/21 21:51:03;;;;;;;58.55;30.08;;;;;;;;;;7362502;19;20466;-79
2024/01/21 21:53:28;;;;;;;59.35;29.27;;;;;;;;;;7364854;19;19998;-76
2024/01/21 21:55:53;;;;;;;71.70;32.27;;;;;;;;;;7365569;19;20021;-82
2024/01/21 21:58:18;;;;;;;53.08;29.45;;;;;;;;;;7365939;19;20224;-86
2024/01/21 22:00:44;;;;;;;53.65;29.73;;;;;;;;;;7336152;19;20022;-83
2024/01/21 22:03:09;;;;;;;55.08;28.02;;;;;;;;;;7368868;19;20056;-79
2024/01/21 22:05:34;;;;;;;61.40;29.70;;;;;;;;;;7363969;19;20002;-81
2024/01/21 22:07:59;;;;;;;63.10;30.10;;;;;;;;;;7359753;19;20356;-83
2024/01/21 22:10:25;;;;;;;53.15;28.20;;;;;;;;;;7359881;19;20003;-79
2024/01/21 22:12:50;;;;;;;71.53;31.30;;;;;;;;;;7360793;19;21051;-83
2024/01/21 22:15:15;;;;;;;50.35;27.38;;;;;;;;;;7360382;19;20021;-78
2024/01/21 22:17:41;;;;;;;57.50;28.27;;;;;;;;;;7363386;19;20003;-77
2024/01/21 22:20:06;;;;;;;60.65;28.80;;;;;;;;;;7367139;19;20728;-81
2024/01/21 22:22:31;;;;;;;56.45;28.23;;;;;;;;;;7361427;19;20534;-81
2024/01/21 22:24:56;;;;;;;58.60;26.70;;;;;;;;;;7363166;19;20591;-78
2024/01/21 22:27:22;;;;;;;52.88;26.70;;;;;;;;;;7363134;19;20228;-80
2024/01/21 22:29:47;;;;;;;63.50;27.70;;;;;;;;;;7349704;19;20324;-81
2024/01/21 22:32:12;;;;;;;47.85;25.30;;;;;;;;;;7363404;19;20431;-78
2024/01/21 22:34:37;;;;;;;55.53;25.02;;;;;;;;;;7367009;19;20231;-85
2024/01/21 22:37:02;;;;;;;53.35;25.77;;;;;;;;;;7366860;19;20253;-82
2024/01/21 22:39:28;;;;;;;52.50;25.33;;;;;;;;;;7361459;19;20025;-77
2024/01/21 22:41:54;;;;;;;56.65;25.35;;;;;;;;;;7363557;19;19999;-79
2024/01/21 22:44:19;;;;;;;58.45;25.92;;;;;;;;;;7363048;19;20030;-81
2024/01/21 22:46:44;;;;;;;44.03;25.00;;;;;;;;;;7365031;19;19995;-77
2024/01/21 22:49:09;;;;;;;52.00;25.77;;;;;;;;;;7369344;19;20333;-88
2024/01/21 22:51:34;;;;;;;42.85;23.70;;;;;;;;;;7357629;19;19990;-84
2024/01/21 22:53:59;;;;;;;46.08;24.00;;;;;;;;;;7362028;19;20239;-79
2024/01/21 22:56:25;;;;;;;54.45;26.33;;;;;;;;;;7366756;19;20239;-82
2024/01/21 22:58:50;;;;;;;52.17;24.67;;;;;;;;;;7363736;19;20070;-81
2024/01/21 23:01:16;;;;;;;49.80;24.13;;;;;;;;;;7362565;19;20014;-82
2024/01/21 23:03:41;;;;;;;47.55;24.38;;;;;;;;;;7343440;19;20476;-83
2024/01/21 23:06:09;;;;;;;50.10;24.65;;;;;;;;;;7354219;19;20499;-83
2024/01/21 23:08:34;;;;;;;52.03;25.20;;;;;;;;;;7344565;19;20009;-86
2024/01/21 23:11:01;;;;;;;41.38;23.33;;;;;;;;;;7357103;19;20459;-82
2024/01/21 23:13:26;;;;;;;52.88;26.52;;;;;;;;;;7362744;19;20255;-82
2024/01/21 23:15:53;;;;;;;46.42;24.33;;;;;;;;;;7353914;19;20006;-84
2024/01/21 23:18:18;;;;;;;45.85;24.38;;;;;;;;;;7365097;19;20009;-82
2024/01/21 23:20:43;;;;;;;44.28;24.75;;;;;;;;;;7362865;19;20006;-81
2024/01/21 23:23:09;;;;;;;42.43;23.57;;;;;;;;;;7361460;19;20235;-83
2024/01/21 23:25:35;;;;;;;47.95;23.65;;;;;;;;;;7369677;19;20224;-80
2024/01/21 23:28:00;;;;;;;39.20;23.10;;;;;;;;;;7366262;19;20585;-80
2024/01/21 23:30:25;;;;;;;39.03;22.60;;;;;;;;;;7364015;19;20023;-86
2024/01/21 23:32:51;;;;;;;46.25;22.45;;;;;;;;;;7361852;19;20239;-80
2024/01/21 23:35:16;;;;;;;38.00;22.00;;;;;;;;;;7360672;19;20239;-83
2024/01/21 23:37:41;;;;;;;41.67;23.00;;;;;;;;;;7351215;19;20235;-81
2024/01/21 23:40:06;;;;;;;43.22;21.40;;;;;;;;;;7340690;19;20499;-83
2024/01/21 23:42:32;;;;;;;35.40;22.00;;;;;;;;;;7367611;19;20225;-83
2024/01/21 23:44:57;;;;;;;37.58;22.27;;;;;;;;;;7362957;19;19994;-82
2024/01/21 23:47:22;;;;;;;40.85;21.55;;;;;;;;;;7365847;19;19998;-84
2024/01/21 23:49:47;;;;;;;36.13;20.17;;;;;;;;;;7361565;19;20252;-85
2024/01/21 23:52:12;;;;;;;33.67;20.63;;;;;;;;;;7366767;19;21173;-81
2024/01/21 23:54:38;;;;;;;33.45;20.15;;;;;;;;;;7361982;19;20002;-83
2024/01/21 23:57:04;;;;;;;34.83;20.33;;;;;;;;;;7366807;19;20016;-78
2024/01/21 23:59:29;;;;;;;36.97;19.58;;;;;;;;;;7366450;19;20066;-84
